createdAt,value
2022-08-04T00:00:08.928Z,98455.56
2022-08-04T00:03:18.446Z,98456.13
2022-08-04T00:06:46.093Z,98459.13
2022-08-04T00:10:06.085Z,98455.41
2022-08-04T00:13:08.208Z,98456.25
2022-08-04T00:16:10.612Z,98444.25
2022-08-04T00:19:40.836Z,98461.28
2022-08-04T00:22:42.991Z,98450.38
2022-08-04T00:25:45.183Z,98452.53
2022-08-04T00:28:48.410Z,98458.34
2022-08-04T00:31:56.070Z,98456.47
2022-08-04T00:34:59.802Z,98460.47
2022-08-04T00:38:01.934Z,98455.06
2022-08-04T00:41:19.755Z,98456.19
2022-08-04T00:44:53.545Z,98455.94
2022-08-04T00:48:22.230Z,98444.41
2022-08-04T00:51:40.981Z,98455.00
2022-08-04T00:55:09.176Z,98457.63
2022-08-04T00:58:36.327Z,98452.81
2022-08-04T01:02:00.643Z,98450.63
2022-08-04T01:05:15.824Z,98451.47
2022-08-04T01:08:26.739Z,98447.97
2022-08-04T01:12:02.845Z,98449.09
2022-08-04T01:15:06.898Z,98444.59
2022-08-04T01:18:09.364Z,98445.53
2022-08-04T01:21:29.574Z,98448.50
2022-08-04T01:24:43.594Z,98456.59
2022-08-04T01:27:57.807Z,98455.88
2022-08-04T01:31:20.877Z,98455.88
2022-08-04T01:34:23.387Z,98449.34
2022-08-04T01:37:58.798Z,98453.97
2022-08-04T01:41:14.205Z,98437.66
2022-08-04T01:44:17.009Z,98434.16
2022-08-04T01:47:21.603Z,98427.47
2022-08-04T01:50:24.478Z,98439.09
2022-08-04T01:53:31.890Z,98443.72
2022-08-04T01:56:34.015Z,98431.09
2022-08-04T01:59:36.902Z,98444.50
2022-08-04T02:02:39.413Z,98436.06
2022-08-04T02:06:03.414Z,98429.25
2022-08-04T02:09:54.787Z,98428.50
2022-08-04T02:13:28.045Z,98432.47
2022-08-04T02:16:52.295Z,98430.97
2022-08-04T02:20:07.343Z,98425.69
2022-08-04T02:23:14.389Z,98422.56
2022-08-04T02:26:22.207Z,98432.44
2022-08-04T02:29:36.283Z,98432.75
2022-08-04T02:32:41.677Z,98435.72
2022-08-04T02:35:43.848Z,98430.13
2022-08-04T02:38:58.991Z,98441.56
2022-08-04T02:42:05.024Z,98432.25
2022-08-04T02:45:07.643Z,98424.78
2022-08-04T02:48:30.400Z,98426.63
2022-08-04T02:51:42.438Z,98427.97
2022-08-04T02:54:44.508Z,98424.75
2022-08-04T02:57:47.558Z,98421.53
2022-08-04T03:00:52.095Z,98430.84
2022-08-04T03:04:12.715Z,98435.91
2022-08-04T03:07:48.219Z,98432.97
2022-08-04T03:11:25.293Z,98435.44
2022-08-04T03:15:07.165Z,98443.72
2022-08-04T03:18:52.705Z,98439.44
2022-08-04T03:22:20.193Z,98454.06
2022-08-04T03:26:02.291Z,98458.63
2022-08-04T03:29:43.660Z,98455.16
2022-08-04T03:33:04.358Z,98450.88
2022-08-04T03:37:01.847Z,98439.16
2022-08-04T03:40:54.917Z,98443.97
2022-08-04T03:44:24.623Z,98445.00
2022-08-04T03:48:12.968Z,98445.84
2022-08-04T03:52:02.478Z,98445.56
2022-08-04T03:55:30.896Z,98451.16
2022-08-04T03:58:38.810Z,98448.50
2022-08-04T04:02:21.200Z,98455.66
2022-08-04T04:06:02.106Z,98447.06
2022-08-04T04:09:57.447Z,98450.31
2022-08-04T04:13:21.151Z,98448.72
2022-08-04T04:16:50.005Z,98447.94
2022-08-04T04:20:24.979Z,98451.66
2022-08-04T04:23:51.690Z,98435.66
2022-08-04T04:27:32.617Z,98448.75
2022-08-04T04:31:02.721Z,98443.88
2022-08-04T04:34:34.318Z,98450.78
2022-08-04T04:37:59.951Z,98456.69
2022-08-04T04:41:23.846Z,98451.31
2022-08-04T04:45:11.139Z,98450.03
2022-08-04T04:48:36.486Z,98455.50
2022-08-04T04:51:52.623Z,98472.31
2022-08-04T04:55:10.408Z,98473.75
2022-08-04T04:58:15.570Z,98479.38
2022-08-04T05:01:38.672Z,98482.47
2022-08-04T05:05:04.913Z,98493.00
2022-08-04T05:08:44.908Z,98491.16
2022-08-04T05:14:31.787Z,98497.28
2022-08-04T05:16:44.956Z,98498.28
2022-08-04T05:20:08.601Z,98498.84
2022-08-04T05:23:17.991Z,98502.31
2022-08-04T05:26:20.149Z,98511.91
2022-08-04T05:29:41.207Z,98505.47
2022-08-04T05:33:03.642Z,98492.81
2022-08-04T05:36:21.077Z,98501.16
2022-08-04T05:39:33.861Z,98494.56
2022-08-04T05:42:39.575Z,98497.44
2022-08-04T05:45:41.951Z,98503.03
2022-08-04T05:48:44.823Z,98498.59
2022-08-04T05:51:47.251Z,98511.72
2022-08-04T05:54:49.327Z,98521.34
2022-08-04T05:57:55.594Z,98512.25
2022-08-04T06:00:59.820Z,98517.06
2022-08-04T06:04:03.976Z,98517.00
2022-08-04T06:07:11.132Z,98508.47
2022-08-04T06:10:13.241Z,98510.88
2022-08-04T06:13:47.885Z,98512.75
2022-08-04T06:16:42.960Z,98519.97
2022-08-04T06:19:58.917Z,98529.88
2022-08-04T06:23:11.980Z,98545.34
2022-08-04T06:26:19.634Z,98544.28
2022-08-04T06:29:30.819Z,98547.72
2022-08-04T06:32:41.647Z,98542.31
2022-08-04T06:35:43.983Z,98544.19
2022-08-04T06:38:46.082Z,98546.25
2022-08-04T06:42:22.121Z,98535.66
2022-08-04T06:45:11.636Z,98540.47
2022-08-04T06:48:16.141Z,98545.47
2022-08-04T06:51:26.830Z,98542.81
2022-08-04T06:54:35.199Z,98548.56
2022-08-04T06:57:37.425Z,98548.53
2022-08-04T07:00:41.059Z,98549.09
2022-08-04T07:03:43.304Z,98554.09
2022-08-04T07:06:45.391Z,98561.28
2022-08-04T07:09:47.498Z,98570.66
2022-08-04T07:12:49.611Z,98581.63
2022-08-04T07:15:55.079Z,98583.75
2022-08-04T07:18:57.209Z,98573.59
2022-08-04T07:22:24.687Z,98578.13
2022-08-04T07:25:59.569Z,98588.78
2022-08-04T07:28:47.930Z,98573.84
2022-08-04T07:31:50.054Z,98577.38
2022-08-04T07:34:52.343Z,98586.16
2022-08-04T07:37:54.770Z,98574.31
2022-08-04T07:40:56.919Z,98571.97
2022-08-04T07:43:59.053Z,98582.13
2022-08-04T07:47:02.625Z,98572.91
2022-08-04T07:50:05.314Z,98609.13
2022-08-04T07:53:53.536Z,98605.84
2022-08-04T07:56:29.715Z,98612.00
2022-08-04T07:59:32.720Z,98596.59
2022-08-04T08:02:35.614Z,98606.22
2022-08-04T08:06:16.739Z,98601.34
2022-08-04T08:09:02.187Z,98606.19
2022-08-04T08:12:35.298Z,98602.69
2022-08-04T08:15:37.083Z,98595.19
2022-08-04T08:18:39.323Z,98598.69
2022-08-04T08:21:58.855Z,98599.50
2022-08-04T08:25:02.364Z,98608.78
2022-08-04T08:28:05.580Z,98599.97
2022-08-04T08:31:07.719Z,98603.63
2022-08-04T08:34:12.247Z,98603.41
2022-08-04T08:37:42.189Z,98604.19
2022-08-04T08:41:08.367Z,98607.31
2022-08-04T08:44:37.509Z,98616.16
2022-08-04T08:48:06.701Z,98612.94
2022-08-04T08:51:50.012Z,98632.81
2022-08-04T08:55:01.689Z,98629.06
2022-08-04T08:58:18.262Z,98634.94
2022-08-04T09:02:03.419Z,98616.59
2022-08-04T09:05:39.351Z,98626.72
2022-08-04T09:09:06.663Z,98626.44
2022-08-04T09:12:25.862Z,98629.13
2022-08-04T09:15:37.581Z,98637.94
2022-08-04T09:18:47.025Z,98625.41
2022-08-04T09:22:15.728Z,98617.44
2022-08-04T09:25:50.349Z,98621.13
2022-08-04T09:29:16.368Z,98623.31
2022-08-04T09:32:41.165Z,98621.34
2022-08-04T09:35:53.198Z,98653.84
2022-08-04T09:39:09.799Z,98614.47
2022-08-04T09:42:33.045Z,98646.75
2022-08-04T09:46:25.598Z,98637.31
2022-08-04T09:49:47.233Z,98631.34
2022-08-04T09:53:05.927Z,98659.53
2022-08-04T09:56:20.899Z,98657.84
2022-08-04T09:59:30.174Z,98673.09
2022-08-04T10:02:36.438Z,98639.69
2022-08-04T10:05:57.165Z,98631.03
2022-08-04T10:09:21.292Z,98693.19
2022-08-04T10:12:24.047Z,98678.75
2022-08-04T10:15:41.617Z,98683.34
2022-08-04T10:19:20.376Z,98688.44
2022-08-04T10:22:40.784Z,98704.75
2022-08-04T10:26:07.356Z,98689.22
2022-08-04T10:29:46.872Z,98680.81
2022-08-04T10:33:18.742Z,98718.31
2022-08-04T10:36:23.979Z,98689.75
2022-08-04T10:40:21.337Z,98704.91
2022-08-04T10:43:35.319Z,98726.03
2022-08-04T10:46:44.419Z,98745.00
2022-08-04T10:49:55.577Z,98742.47
2022-08-04T10:53:09.725Z,98724.88
2022-08-04T10:56:39.126Z,98731.63
2022-08-04T10:59:53.650Z,98735.97
2022-08-04T11:03:24.219Z,98734.59
2022-08-04T11:06:26.585Z,98744.13
2022-08-04T11:09:30.002Z,98755.84
2022-08-04T11:12:32.228Z,98758.28
2022-08-04T11:15:38.390Z,98760.94
2022-08-04T11:19:12.025Z,98759.28
2022-08-04T11:22:27.673Z,98762.47
2022-08-04T11:25:35.981Z,98786.47
2022-08-04T11:29:06.796Z,98779.97
2022-08-04T11:32:21.521Z,98811.91
2022-08-04T11:35:36.352Z,98793.94
2022-08-04T11:38:59.432Z,98808.47
2022-08-04T11:42:21.253Z,98808.44
2022-08-04T11:45:37.659Z,98808.38
2022-08-04T11:48:50.879Z,98799.56
2022-08-04T11:51:53.050Z,98810.28
2022-08-04T11:54:55.406Z,98795.13
2022-08-04T11:57:57.534Z,98812.09
2022-08-04T12:01:11.462Z,98819.09
2022-08-04T12:05:00.981Z,98816.19
2022-08-04T12:08:45.617Z,98817.63
2022-08-04T12:12:13.666Z,98825.19
2022-08-04T12:15:38.139Z,98820.72
2022-08-04T12:18:45.784Z,98824.81
2022-08-04T12:21:57.325Z,98815.63
2022-08-04T12:25:09.890Z,98849.59
2022-08-04T12:28:59.581Z,98828.63
2022-08-04T12:32:00.605Z,98855.63
2022-08-04T12:35:30.758Z,98853.38
2022-08-04T12:38:33.460Z,98862.88
2022-08-04T12:41:41.795Z,98873.84
2022-08-04T12:44:44.013Z,98873.09
2022-08-04T12:47:46.235Z,98868.47
2022-08-04T12:50:51.283Z,98868.97
2022-08-04T12:53:53.380Z,98871.28
2022-08-04T12:56:58.229Z,98868.75
2022-08-04T13:00:00.395Z,98867.75
2022-08-04T13:03:11.088Z,98883.25
2022-08-04T13:06:21.317Z,98874.00
2022-08-04T13:09:29.914Z,98860.94
2022-08-04T13:12:33.218Z,98883.16
2022-08-04T13:15:46.961Z,98878.31
2022-08-04T13:18:50.102Z,98872.72
2022-08-04T13:22:02.900Z,98879.59
2022-08-04T13:26:40.681Z,98884.91
2022-08-04T13:28:28.223Z,98856.44
2022-08-04T13:31:35.767Z,98903.00
2022-08-04T13:34:41.524Z,98876.66
2022-08-04T13:37:51.777Z,98888.31
2022-08-04T13:40:56.782Z,98884.63
2022-08-04T13:44:18.168Z,98894.50
2022-08-04T13:47:27.944Z,98916.56
2022-08-04T13:50:31.154Z,98882.94
2022-08-04T13:53:34.260Z,98882.47
2022-08-04T13:56:42.090Z,98889.84
2022-08-04T13:59:47.869Z,98896.97
2022-08-04T14:02:53.519Z,98913.03
2022-08-04T14:06:19.188Z,98894.56
2022-08-04T14:09:23.176Z,98900.81
2022-08-04T14:12:47.342Z,98881.88
2022-08-04T14:16:02.790Z,98900.16
2022-08-04T14:19:06.345Z,98889.78
2022-08-04T14:22:14.007Z,98908.06
2022-08-04T14:25:18.535Z,98888.94
2022-08-04T14:29:01.139Z,98880.78
2022-08-04T14:31:57.722Z,98903.22
2022-08-04T14:35:06.167Z,98893.56
2022-08-04T14:38:10.614Z,98909.97
2022-08-04T14:41:13.960Z,98892.94
2022-08-04T14:44:16.368Z,98913.84
2022-08-04T14:47:18.511Z,98901.72
2022-08-04T14:50:20.932Z,98919.06
2022-08-04T14:53:29.540Z,98909.34
2022-08-04T14:56:46.649Z,98902.72
2022-08-04T15:00:00.652Z,98904.72
2022-08-04T15:03:08.667Z,98902.63
2022-08-04T15:06:15.180Z,98903.94
2022-08-04T15:09:19.471Z,98903.03
2022-08-04T15:12:21.741Z,98914.13
2022-08-04T15:15:36.497Z,98932.78
2022-08-04T15:18:39.534Z,98905.97
2022-08-04T15:21:41.980Z,98907.63
2022-08-04T15:24:44.064Z,98916.19
2022-08-04T15:27:49.254Z,98917.78
2022-08-04T15:30:53.419Z,98926.06
2022-08-04T15:33:56.248Z,98925.56
2022-08-04T15:37:01.781Z,98935.47
2022-08-04T15:40:15.386Z,98935.53
2022-08-04T15:43:42.260Z,98932.44
2022-08-04T15:47:04.790Z,98953.13
2022-08-04T15:50:09.720Z,98933.75
2022-08-04T15:53:13.058Z,98934.88
2022-08-04T15:56:30.307Z,98940.31
2022-08-04T16:00:00.549Z,98936.25
2022-08-04T16:03:02.782Z,98949.00
2022-08-04T16:06:11.607Z,98938.94
2022-08-04T16:09:24.272Z,98940.41
2022-08-04T16:13:05.949Z,98938.63
2022-08-04T16:16:08.093Z,98937.09
2022-08-04T16:19:48.926Z,98937.09
2022-08-04T16:22:51.591Z,98948.72
2022-08-04T16:25:53.782Z,98940.88
2022-08-04T16:28:55.857Z,98948.19
2022-08-04T16:32:23.534Z,98936.28
2022-08-04T16:35:28.409Z,98951.22
2022-08-04T16:38:30.571Z,98945.97
2022-08-04T16:41:42.611Z,98929.84
2022-08-04T16:44:53.080Z,98932.06
2022-08-04T16:47:55.700Z,98965.38
2022-08-04T16:51:15.675Z,98946.75
2022-08-04T16:54:17.780Z,98952.94
2022-08-04T16:57:19.962Z,98969.78
2022-08-04T17:00:36.790Z,98957.22
2022-08-04T17:03:41.315Z,98963.47
2022-08-04T17:06:44.701Z,98965.41
2022-08-04T17:09:51.171Z,98961.41
2022-08-04T17:13:08.388Z,98961.94
2022-08-04T17:16:21.096Z,98969.75
2022-08-04T17:19:25.907Z,98973.63
2022-08-04T17:22:28.850Z,98968.78
2022-08-04T17:25:52.073Z,98965.34
2022-08-04T17:28:55.376Z,98975.75
2022-08-04T17:31:57.562Z,98969.66
2022-08-04T17:35:03.584Z,98971.56
2022-08-04T17:38:06.056Z,98974.50
2022-08-04T17:41:18.931Z,98993.16
2022-08-04T17:44:37.319Z,98989.94
2022-08-04T17:47:52.480Z,98988.09
2022-08-04T17:50:54.615Z,98977.56
2022-08-04T17:54:02.176Z,98980.16
2022-08-04T17:57:19.876Z,98982.19
2022-08-04T18:00:22.796Z,98987.47
2022-08-04T18:03:30.014Z,98995.22
2022-08-04T18:06:32.247Z,98987.88
2022-08-04T18:10:08.711Z,99014.56
2022-08-04T18:13:20.898Z,99009.78
2022-08-04T18:16:23.363Z,99021.00
2022-08-04T18:19:25.636Z,99011.97
2022-08-04T18:22:33.778Z,99021.72
2022-08-04T18:25:51.219Z,99015.88
2022-08-04T18:28:54.208Z,99002.38
2022-08-04T18:31:56.620Z,99011.13
2022-08-04T18:35:07.049Z,99010.00
2022-08-04T18:38:22.867Z,99014.06
2022-08-04T18:41:29.273Z,99025.03
2022-08-04T18:44:52.979Z,99026.63
2022-08-04T18:47:58.954Z,99031.25
2022-08-04T18:51:10.208Z,99038.03
2022-08-04T18:54:13.999Z,99042.56
2022-08-04T18:57:58.945Z,99047.38
2022-08-04T19:00:48.402Z,99059.13
2022-08-04T19:03:54.546Z,99054.09
2022-08-04T19:07:23.442Z,99071.38
2022-08-04T19:10:23.716Z,99072.16
2022-08-04T19:13:34.682Z,99068.06
2022-08-04T19:16:37.164Z,99061.22
2022-08-04T19:19:47.760Z,99078.59
2022-08-04T19:24:26.520Z,99075.38
2022-08-04T19:26:23.683Z,99075.94
2022-08-04T19:29:37.125Z,99077.78
2022-08-04T19:32:40.620Z,99089.84
2022-08-04T19:35:50.704Z,99096.03
2022-08-04T19:38:53.412Z,99096.41
2022-08-04T19:42:05.603Z,99096.06
2022-08-04T19:45:15.368Z,99103.06
2022-08-04T19:48:19.762Z,99102.81
2022-08-04T19:51:22.506Z,99105.16
2022-08-04T19:54:27.373Z,99091.72
2022-08-04T19:57:35.543Z,99103.69
2022-08-04T20:00:39.322Z,99098.56
2022-08-04T20:04:10.293Z,99113.94
2022-08-04T20:07:03.509Z,99117.38
2022-08-04T20:10:07.504Z,99116.50
2022-08-04T20:13:15.046Z,99123.66
2022-08-04T20:16:29.725Z,99125.53
2022-08-04T20:19:32.919Z,99131.28
2022-08-04T20:22:50.887Z,99144.22
2022-08-04T20:25:54.239Z,99133.72
2022-08-04T20:28:56.543Z,99128.72
2022-08-04T20:32:05.585Z,99145.22
2022-08-04T20:35:15.684Z,99138.16
2022-08-04T20:38:33.315Z,99152.50
2022-08-04T20:41:36.794Z,99153.19
2022-08-04T20:44:42.333Z,99153.88
2022-08-04T20:47:53.288Z,99158.16
2022-08-04T20:50:56.438Z,99156.22
2022-08-04T20:53:59.671Z,99164.94
2022-08-04T20:57:03.041Z,99168.13
2022-08-04T21:00:07.712Z,99169.28
2022-08-04T21:03:09.796Z,99167.28
2022-08-04T21:06:11.880Z,99176.00
2022-08-04T21:09:15.512Z,99172.28
2022-08-04T21:12:29.163Z,99173.91
2022-08-04T21:15:58.716Z,99180.56
2022-08-04T21:18:53.595Z,99185.13
2022-08-04T21:21:59.567Z,99179.78
2022-08-04T21:25:01.640Z,99194.94
2022-08-04T21:28:04.596Z,99183.81
2022-08-04T21:31:21.647Z,99186.47
2022-08-04T21:34:38.079Z,99192.66
2022-08-04T21:37:56.565Z,99191.78
2022-08-04T21:41:01.609Z,99192.59
2022-08-04T21:44:04.475Z,99187.53
2022-08-04T21:47:06.846Z,99203.19
2022-08-04T21:50:20.164Z,99193.56
2022-08-04T21:53:22.857Z,99207.88
2022-08-04T21:56:26.577Z,99194.81
2022-08-04T22:06:17.441Z,99210.84
2022-08-04T22:12:42.895Z,99213.91
2022-08-04T22:16:03.589Z,99208.75
2022-08-04T22:19:08.856Z,99207.88
2022-08-04T22:22:24.505Z,99216.34
2022-08-04T22:25:31.221Z,99204.53
2022-08-04T22:28:33.482Z,99209.84
2022-08-04T22:31:55.822Z,99209.28
2022-08-04T22:35:03.018Z,99211.81
2022-08-04T22:38:27.979Z,99212.56
2022-08-04T22:41:48.259Z,99204.56
2022-08-04T22:44:50.612Z,99216.81
2022-08-04T22:47:53.550Z,99219.28
2022-08-04T22:50:55.939Z,99221.28
2022-08-04T22:54:00.125Z,99216.22
2022-08-04T22:57:02.607Z,99215.41
2022-08-04T23:00:07.361Z,99214.66
2022-08-04T23:03:11.145Z,99217.84
2022-08-04T23:06:13.549Z,99219.34
2022-08-04T23:09:16.139Z,99209.47
2022-08-04T23:12:26.998Z,99211.69
2022-08-04T23:15:33.659Z,99204.06
2022-08-04T23:18:36.180Z,99201.28
2022-08-04T23:21:47.355Z,99209.78
2022-08-04T23:24:50.415Z,99207.75
2022-08-04T23:27:52.607Z,99211.19
2022-08-04T23:30:55.992Z,99205.81
2022-08-04T23:33:58.831Z,99205.88
2022-08-04T23:37:01.028Z,99208.25
2022-08-04T23:40:29.959Z,99210.31
2022-08-04T23:43:25.983Z,99210.47
2022-08-04T23:46:40.883Z,99213.13
2022-08-04T23:49:45.316Z,99212.84
2022-08-04T23:52:47.583Z,99210.31
2022-08-04T23:55:51.955Z,99213.19
2022-08-04T23:58:54.173Z,99221.66
